Chubbuck, Idaho
Current Conditions -  °F | °C
As of 8:53 AM on Thursday 29 Jan 2015 (Local Time) from KPIH Reporting Station
Haze Haze  
Wind Chill: 26°   Ceiling: 300
Heat Index: 32°   Visibility: 2.5mi
Dew Point: 32°   Wind: 6mph
Humidity: 100%   Direction: 80°E
Pressure: 30.43"   Gusts: NA
Location:  42.9377°N, 112.489°W
Report Text: KPIH 291553Z 08005KT 2 1/2SM BR OVC003 00/00 A3043 RMK AO2 SLP326 T00000000
Loading
Personal Weather Stations






























Interactive Weather Map New forecast layout! Learn more

10-Day Weather Forecast

Advertisements
Track Severe Weather on mobile